sensor_id;sensor_type;location;lat;lon;timestamp;P1;durP1;ratioP1;P2;durP2;ratioP2
1350;SDS011;669;50.206;9.998;2023-04-06T00:02:10;3.67;;;2.33;;
1350;SDS011;669;50.206;9.998;2023-04-06T00:04:38;2.57;;;2.37;;
1350;SDS011;669;50.206;9.998;2023-04-06T00:07:08;3.40;;;2.57;;
1350;SDS011;669;50.206;9.998;2023-04-06T00:09:36;3.60;;;2.80;;
1350;SDS011;669;50.206;9.998;2023-04-06T00:12:04;3.47;;;2.70;;
1350;SDS011;669;50.206;9.998;2023-04-06T00:14:32;3.03;;;2.57;;
1350;SDS011;669;50.206;9.998;2023-04-06T00:17:00;4.53;;;2.83;;
1350;SDS011;669;50.206;9.998;2023-04-06T00:19:28;3.30;;;2.93;;
1350;SDS011;669;50.206;9.998;2023-04-06T00:21:56;5.40;;;2.80;;
1350;SDS011;669;50.206;9.998;2023-04-06T00:24:25;2.37;;;2.17;;
1350;SDS011;669;50.206;9.998;2023-04-06T00:26:53;3.00;;;2.80;;
1350;SDS011;669;50.206;9.998;2023-04-06T00:29:21;6.77;;;4.17;;
1350;SDS011;669;50.206;9.998;2023-04-06T00:31:49;3.17;;;2.70;;
1350;SDS011;669;50.206;9.998;2023-04-06T00:34:17;3.10;;;2.90;;
1350;SDS011;669;50.206;9.998;2023-04-06T00:36:45;6.13;;;2.93;;
1350;SDS011;669;50.206;9.998;2023-04-06T00:39:13;3.70;;;2.50;;
1350;SDS011;669;50.206;9.998;2023-04-06T00:41:42;2.67;;;2.43;;
1350;SDS011;669;50.206;9.998;2023-04-06T00:44:16;5.40;;;3.00;;
1350;SDS011;669;50.206;9.998;2023-04-06T00:46:44;3.37;;;3.07;;
1350;SDS011;669;50.206;9.998;2023-04-06T00:49:12;3.07;;;2.77;;
1350;SDS011;669;50.206;9.998;2023-04-06T00:51:40;5.70;;;3.13;;
1350;SDS011;669;50.206;9.998;2023-04-06T00:54:08;2.60;;;2.40;;
1350;SDS011;669;50.206;9.998;2023-04-06T00:56:36;2.80;;;2.60;;
1350;SDS011;669;50.206;9.998;2023-04-06T00:59:05;3.63;;;2.97;;
1350;SDS011;669;50.206;9.998;2023-04-06T01:01:33;3.00;;;2.67;;
1350;SDS011;669;50.206;9.998;2023-04-06T01:04:01;3.20;;;2.90;;
1350;SDS011;669;50.206;9.998;2023-04-06T01:06:29;2.43;;;2.23;;
1350;SDS011;669;50.206;9.998;2023-04-06T01:08:57;2.57;;;2.37;;
1350;SDS011;669;50.206;9.998;2023-04-06T01:11:25;3.00;;;2.70;;
1350;SDS011;669;50.206;9.998;2023-04-06T01:13:53;3.87;;;2.83;;
1350;SDS011;669;50.206;9.998;2023-04-06T01:16:23;4.20;;;3.13;;
1350;SDS011;669;50.206;9.998;2023-04-06T01:18:51;3.20;;;3.00;;
1350;SDS011;669;50.206;9.998;2023-04-06T01:21:19;3.03;;;2.60;;
1350;SDS011;669;50.206;9.998;2023-04-06T01:23:48;3.20;;;3.00;;
1350;SDS011;669;50.206;9.998;2023-04-06T01:26:16;3.43;;;3.13;;
1350;SDS011;669;50.206;9.998;2023-04-06T01:28:44;6.23;;;2.60;;
1350;SDS011;669;50.206;9.998;2023-04-06T01:31:12;2.90;;;2.57;;
1350;SDS011;669;50.206;9.998;2023-04-06T01:33:40;3.60;;;3.30;;
1350;SDS011;669;50.206;9.998;2023-04-06T01:36:08;2.50;;;2.40;;
1350;SDS011;669;50.206;9.998;2023-04-06T01:38:36;3.40;;;3.10;;
1350;SDS011;669;50.206;9.998;2023-04-06T01:41:05;3.07;;;2.77;;
1350;SDS011;669;50.206;9.998;2023-04-06T01:43:34;3.03;;;2.73;;
1350;SDS011;669;50.206;9.998;2023-04-06T01:46:02;3.50;;;3.20;;
1350;SDS011;669;50.206;9.998;2023-04-06T01:48:30;3.67;;;3.00;;
1350;SDS011;669;50.206;9.998;2023-04-06T01:50:58;3.90;;;3.00;;
1350;SDS011;669;50.206;9.998;2023-04-06T01:53:26;3.40;;;2.97;;
1350;SDS011;669;50.206;9.998;2023-04-06T01:55:54;3.77;;;3.30;;
1350;SDS011;669;50.206;9.998;2023-04-06T01:58:23;2.80;;;2.60;;
1350;SDS011;669;50.206;9.998;2023-04-06T02:00:52;3.17;;;2.87;;
1350;SDS011;669;50.206;9.998;2023-04-06T02:03:20;4.23;;;2.63;;
1350;SDS011;669;50.206;9.998;2023-04-06T02:05:48;3.43;;;3.13;;
1350;SDS011;669;50.206;9.998;2023-04-06T02:08:16;2.80;;;2.60;;
1350;SDS011;669;50.206;9.998;2023-04-06T02:10:44;3.03;;;2.73;;
1350;SDS011;669;50.206;9.998;2023-04-06T02:13:12;2.90;;;2.70;;
1350;SDS011;669;50.206;9.998;2023-04-06T02:15:41;2.30;;;2.20;;
1350;SDS011;669;50.206;9.998;2023-04-06T02:18:09;3.63;;;3.30;;
1350;SDS011;669;50.206;9.998;2023-04-06T02:20:37;4.20;;;3.27;;
1350;SDS011;669;50.206;9.998;2023-04-06T02:23:05;2.50;;;2.30;;
1350;SDS011;669;50.206;9.998;2023-04-06T02:25:33;6.03;;;3.50;;
1350;SDS011;669;50.206;9.998;2023-04-06T02:28:01;3.80;;;2.83;;
1350;SDS011;669;50.206;9.998;2023-04-06T02:30:29;3.20;;;2.43;;
1350;SDS011;669;50.206;9.998;2023-04-06T02:33:00;3.90;;;2.90;;
1350;SDS011;669;50.206;9.998;2023-04-06T02:35:29;2.53;;;2.17;;
1350;SDS011;669;50.206;9.998;2023-04-06T02:37:57;2.80;;;2.60;;
1350;SDS011;669;50.206;9.998;2023-04-06T02:40:25;7.67;;;3.20;;
1350;SDS011;669;50.206;9.998;2023-04-06T02:42:53;3.30;;;3.00;;
1350;SDS011;669;50.206;9.998;2023-04-06T02:45:21;3.03;;;2.83;;
1350;SDS011;669;50.206;9.998;2023-04-06T02:47:49;4.73;;;4.00;;
1350;SDS011;669;50.206;9.998;2023-04-06T02:50:19;3.03;;;2.63;;
1350;SDS011;669;50.206;9.998;2023-04-06T02:52:46;4.70;;;3.50;;
1350;SDS011;669;50.206;9.998;2023-04-06T02:55:14;2.77;;;2.60;;
1350;SDS011;669;50.206;9.998;2023-04-06T02:57:42;3.53;;;3.13;;
1350;SDS011;669;50.206;9.998;2023-04-06T03:00:11;4.33;;;3.13;;
1350;SDS011;669;50.206;9.998;2023-04-06T03:02:39;3.20;;;2.83;;
1350;SDS011;669;50.206;9.998;2023-04-06T03:05:07;3.80;;;3.23;;
1350;SDS011;669;50.206;9.998;2023-04-06T03:07:37;4.30;;;3.30;;
1350;SDS011;669;50.206;9.998;2023-04-06T03:10:05;3.87;;;2.37;;
1350;SDS011;669;50.206;9.998;2023-04-06T03:12:33;3.97;;;3.50;;
1350;SDS011;669;50.206;9.998;2023-04-06T03:15:01;3.50;;;3.20;;
1350;SDS011;669;50.206;9.998;2023-04-06T03:17:30;3.70;;;3.13;;
1350;SDS011;669;50.206;9.998;2023-04-06T03:19:58;3.90;;;3.13;;
1350;SDS011;669;50.206;9.998;2023-04-06T03:22:25;3.00;;;2.73;;
1350;SDS011;669;50.206;9.998;2023-04-06T03:24:55;2.93;;;2.73;;
1350;SDS011;669;50.206;9.998;2023-04-06T03:27:23;3.57;;;3.10;;
1350;SDS011;669;50.206;9.998;2023-04-06T03:29:51;3.37;;;3.07;;
1350;SDS011;669;50.206;9.998;2023-04-06T03:32:18;4.43;;;3.30;;
1350;SDS011;669;50.206;9.998;2023-04-06T03:34:46;3.27;;;2.40;;
1350;SDS011;669;50.206;9.998;2023-04-06T03:37:14;2.40;;;2.17;;
1350;SDS011;669;50.206;9.998;2023-04-06T03:39:42;2.60;;;2.40;;
1350;SDS011;669;50.206;9.998;2023-04-06T03:42:12;5.00;;;2.90;;
1350;SDS011;669;50.206;9.998;2023-04-06T03:44:39;3.63;;;3.33;;
1350;SDS011;669;50.206;9.998;2023-04-06T03:47:07;3.80;;;3.03;;
1350;SDS011;669;50.206;9.998;2023-04-06T03:49:35;4.00;;;2.83;;
1350;SDS011;669;50.206;9.998;2023-04-06T03:52:05;3.07;;;2.63;;
1350;SDS011;669;50.206;9.998;2023-04-06T03:54:33;3.40;;;3.10;;
1350;SDS011;669;50.206;9.998;2023-04-06T03:57:01;3.33;;;2.80;;
1350;SDS011;669;50.206;9.998;2023-04-06T03:59:30;2.83;;;2.63;;
1350;SDS011;669;50.206;9.998;2023-04-06T04:01:58;2.87;;;2.63;;
1350;SDS011;669;50.206;9.998;2023-04-06T04:04:26;3.10;;;2.73;;
1350;SDS011;669;50.206;9.998;2023-04-06T04:06:54;3.40;;;2.90;;
1350;SDS011;669;50.206;9.998;2023-04-06T04:09:22;3.80;;;3.03;;
1350;SDS011;669;50.206;9.998;2023-04-06T04:11:50;3.07;;;2.77;;
1350;SDS011;669;50.206;9.998;2023-04-06T04:14:17;9.17;;;3.50;;
1350;SDS011;669;50.206;9.998;2023-04-06T04:16:47;2.80;;;2.63;;
1350;SDS011;669;50.206;9.998;2023-04-06T04:19:15;3.97;;;3.47;;
1350;SDS011;669;50.206;9.998;2023-04-06T04:21:43;2.50;;;2.30;;
1350;SDS011;669;50.206;9.998;2023-04-06T04:24:12;3.60;;;2.90;;
1350;SDS011;669;50.206;9.998;2023-04-06T04:26:40;3.53;;;3.23;;
1350;SDS011;669;50.206;9.998;2023-04-06T04:29:08;2.90;;;2.70;;
1350;SDS011;669;50.206;9.998;2023-04-06T04:31:36;3.17;;;2.90;;
1350;SDS011;669;50.206;9.998;2023-04-06T04:34:05;3.90;;;2.70;;
1350;SDS011;669;50.206;9.998;2023-04-06T04:36:34;2.87;;;2.67;;
1350;SDS011;669;50.206;9.998;2023-04-06T04:39:01;3.73;;;3.43;;
1350;SDS011;669;50.206;9.998;2023-04-06T04:41:29;4.17;;;3.80;;
1350;SDS011;669;50.206;9.998;2023-04-06T04:43:57;4.50;;;3.30;;
1350;SDS011;669;50.206;9.998;2023-04-06T04:46:25;3.50;;;2.50;;
1350;SDS011;669;50.206;9.998;2023-04-06T04:48:53;3.57;;;3.27;;
1350;SDS011;669;50.206;9.998;2023-04-06T04:51:22;3.40;;;2.93;;
1350;SDS011;669;50.206;9.998;2023-04-06T04:53:50;2.53;;;2.33;;
1350;SDS011;669;50.206;9.998;2023-04-06T04:56:18;3.90;;;3.50;;
1350;SDS011;669;50.206;9.998;2023-04-06T04:58:46;5.67;;;3.80;;
1350;SDS011;669;50.206;9.998;2023-04-06T05:01:14;4.07;;;3.30;;
1350;SDS011;669;50.206;9.998;2023-04-06T05:03:42;6.73;;;6.03;;
1350;SDS011;669;50.206;9.998;2023-04-06T05:06:10;5.03;;;4.60;;
1350;SDS011;669;50.206;9.998;2023-04-06T05:08:40;5.50;;;4.57;;
1350;SDS011;669;50.206;9.998;2023-04-06T05:11:08;7.10;;;4.83;;
1350;SDS011;669;50.206;9.998;2023-04-06T05:13:36;3.97;;;3.37;;
1350;SDS011;669;50.206;9.998;2023-04-06T05:16:04;3.83;;;3.53;;
1350;SDS011;669;50.206;9.998;2023-04-06T05:18:32;4.87;;;3.20;;
1350;SDS011;669;50.206;9.998;2023-04-06T05:21:01;4.53;;;3.70;;
1350;SDS011;669;50.206;9.998;2023-04-06T05:23:28;4.27;;;3.50;;
1350;SDS011;669;50.206;9.998;2023-04-06T05:25:58;5.10;;;3.40;;
1350;SDS011;669;50.206;9.998;2023-04-06T05:28:26;3.50;;;3.20;;
1350;SDS011;669;50.206;9.998;2023-04-06T05:30:54;3.40;;;3.13;;
1350;SDS011;669;50.206;9.998;2023-04-06T05:33:23;3.63;;;3.33;;
1350;SDS011;669;50.206;9.998;2023-04-06T05:35:51;3.27;;;2.97;;
1350;SDS011;669;50.206;9.998;2023-04-06T05:38:19;4.10;;;3.27;;
1350;SDS011;669;50.206;9.998;2023-04-06T05:40:47;3.80;;;3.47;;
1350;SDS011;669;50.206;9.998;2023-04-06T05:43:16;2.70;;;2.50;;
1350;SDS011;669;50.206;9.998;2023-04-06T05:45:47;4.40;;;3.00;;
1350;SDS011;669;50.206;9.998;2023-04-06T05:48:15;3.37;;;2.97;;
1350;SDS011;669;50.206;9.998;2023-04-06T05:50:47;3.00;;;2.80;;
1350;SDS011;669;50.206;9.998;2023-04-06T05:53:15;3.57;;;3.20;;
1350;SDS011;669;50.206;9.998;2023-04-06T05:55:43;3.20;;;2.90;;
1350;SDS011;669;50.206;9.998;2023-04-06T05:58:11;3.33;;;3.03;;
1350;SDS011;669;50.206;9.998;2023-04-06T06:00:40;3.93;;;3.53;;
1350;SDS011;669;50.206;9.998;2023-04-06T06:03:09;4.20;;;3.50;;
1350;SDS011;669;50.206;9.998;2023-04-06T06:05:37;4.93;;;3.80;;
1350;SDS011;669;50.206;9.998;2023-04-06T06:08:05;3.80;;;3.10;;
1350;SDS011;669;50.206;9.998;2023-04-06T06:10:33;3.77;;;3.47;;
1350;SDS011;669;50.206;9.998;2023-04-06T06:13:01;4.33;;;3.17;;
1350;SDS011;669;50.206;9.998;2023-04-06T06:15:29;4.20;;;3.57;;
1350;SDS011;669;50.206;9.998;2023-04-06T06:17:58;8.33;;;3.57;;
1350;SDS011;669;50.206;9.998;2023-04-06T06:20:27;4.27;;;3.80;;
1350;SDS011;669;50.206;9.998;2023-04-06T06:23:02;8.63;;;3.60;;
1350;SDS011;669;50.206;9.998;2023-04-06T06:25:38;3.60;;;3.30;;
1350;SDS011;669;50.206;9.998;2023-04-06T06:28:16;4.63;;;4.10;;
1350;SDS011;669;50.206;9.998;2023-04-06T06:30:53;3.37;;;3.07;;
1350;SDS011;669;50.206;9.998;2023-04-06T06:33:32;5.73;;;3.17;;
1350;SDS011;669;50.206;9.998;2023-04-06T06:36:15;3.30;;;3.00;;
1350;SDS011;669;50.206;9.998;2023-04-06T06:38:48;3.23;;;2.93;;
1350;SDS011;669;50.206;9.998;2023-04-06T06:41:20;4.20;;;3.10;;
1350;SDS011;669;50.206;9.998;2023-04-06T06:43:59;4.10;;;3.40;;
1350;SDS011;669;50.206;9.998;2023-04-06T06:46:36;5.13;;;3.80;;
1350;SDS011;669;50.206;9.998;2023-04-06T06:49:11;5.13;;;4.00;;
1350;SDS011;669;50.206;9.998;2023-04-06T06:51:48;4.20;;;3.90;;
1350;SDS011;669;50.206;9.998;2023-04-06T06:54:28;4.20;;;3.80;;
1350;SDS011;669;50.206;9.998;2023-04-06T06:57:06;4.70;;;4.30;;
1350;SDS011;669;50.206;9.998;2023-04-06T06:59:36;5.40;;;4.47;;
1350;SDS011;669;50.206;9.998;2023-04-06T07:02:22;4.10;;;3.80;;
1350;SDS011;669;50.206;9.998;2023-04-06T07:07:57;4.43;;;4.03;;
1350;SDS011;669;50.206;9.998;2023-04-06T07:10:38;5.40;;;4.87;;
1350;SDS011;669;50.206;9.998;2023-04-06T07:13:11;6.70;;;5.10;;
1350;SDS011;669;50.206;9.998;2023-04-06T07:15:51;4.67;;;4.33;;
1350;SDS011;669;50.206;9.998;2023-04-06T07:18:23;5.27;;;4.23;;
1350;SDS011;669;50.206;9.998;2023-04-06T07:21:04;4.57;;;4.13;;
1350;SDS011;669;50.206;9.998;2023-04-06T07:23:41;5.83;;;4.37;;
1350;SDS011;669;50.206;9.998;2023-04-06T07:26:20;6.50;;;5.27;;
1350;SDS011;669;50.206;9.998;2023-04-06T07:28:52;6.60;;;4.93;;
1350;SDS011;669;50.206;9.998;2023-04-06T07:31:32;7.13;;;4.77;;
1350;SDS011;669;50.206;9.998;2023-04-06T07:34:03;6.43;;;4.77;;
1350;SDS011;669;50.206;9.998;2023-04-06T07:36:37;6.23;;;5.63;;
1350;SDS011;669;50.206;9.998;2023-04-06T07:39:24;4.87;;;4.07;;
1350;SDS011;669;50.206;9.998;2023-04-06T07:44:58;5.27;;;4.80;;
1350;SDS011;669;50.206;9.998;2023-04-06T07:47:35;5.70;;;5.20;;
1350;SDS011;669;50.206;9.998;2023-04-06T07:53:26;6.83;;;4.33;;
1350;SDS011;669;50.206;9.998;2023-04-06T07:56:08;3.70;;;3.40;;
1350;SDS011;669;50.206;9.998;2023-04-06T07:58:46;6.20;;;3.80;;
1350;SDS011;669;50.206;9.998;2023-04-06T08:01:35;5.10;;;4.60;;
1350;SDS011;669;50.206;9.998;2023-04-06T08:04:14;6.97;;;5.13;;
1350;SDS011;669;50.206;9.998;2023-04-06T08:06:54;5.33;;;4.83;;
1350;SDS011;669;50.206;9.998;2023-04-06T08:09:31;7.50;;;5.60;;
1350;SDS011;669;50.206;9.998;2023-04-06T08:12:18;5.30;;;4.77;;
1350;SDS011;669;50.206;9.998;2023-04-06T08:14:57;5.50;;;4.37;;
1350;SDS011;669;50.206;9.998;2023-04-06T08:17:41;5.80;;;5.10;;
1350;SDS011;669;50.206;9.998;2023-04-06T08:20:29;4.87;;;4.37;;
1350;SDS011;669;50.206;9.998;2023-04-06T08:23:24;4.37;;;3.97;;
1350;SDS011;669;50.206;9.998;2023-04-06T08:25:57;9.67;;;5.17;;
1350;SDS011;669;50.206;9.998;2023-04-06T08:28:35;5.30;;;4.80;;
1350;SDS011;669;50.206;9.998;2023-04-06T08:31:16;6.97;;;5.17;;
1350;SDS011;669;50.206;9.998;2023-04-06T08:33:58;4.50;;;4.20;;
1350;SDS011;669;50.206;9.998;2023-04-06T08:36:41;4.70;;;4.37;;
1350;SDS011;669;50.206;9.998;2023-04-06T08:39:18;5.63;;;4.57;;
1350;SDS011;669;50.206;9.998;2023-04-06T08:42:16;5.80;;;4.43;;
1350;SDS011;669;50.206;9.998;2023-04-06T08:44:57;6.03;;;5.13;;
1350;SDS011;669;50.206;9.998;2023-04-06T08:48:08;5.20;;;4.80;;
1350;SDS011;669;50.206;9.998;2023-04-06T08:51:11;7.33;;;5.33;;
1350;SDS011;669;50.206;9.998;2023-04-06T08:54:09;8.80;;;7.70;;
1350;SDS011;669;50.206;9.998;2023-04-06T08:57:01;5.80;;;5.20;;
1350;SDS011;669;50.206;9.998;2023-04-06T08:59:37;6.23;;;5.63;;
1350;SDS011;669;50.206;9.998;2023-04-06T09:02:17;8.17;;;5.63;;
1350;SDS011;669;50.206;9.998;2023-04-06T09:05:03;5.90;;;5.40;;
1350;SDS011;669;50.206;9.998;2023-04-06T09:07:41;7.30;;;6.57;;
1350;SDS011;669;50.206;9.998;2023-04-06T09:10:34;6.90;;;6.20;;
1350;SDS011;669;50.206;9.998;2023-04-06T09:13:28;6.83;;;6.13;;
1350;SDS011;669;50.206;9.998;2023-04-06T09:16:23;5.00;;;4.60;;
1350;SDS011;669;50.206;9.998;2023-04-06T09:19:03;5.53;;;4.93;;
1350;SDS011;669;50.206;9.998;2023-04-06T09:21:41;6.67;;;6.13;;
1350;SDS011;669;50.206;9.998;2023-04-06T09:24:19;5.60;;;5.10;;
1350;SDS011;669;50.206;9.998;2023-04-06T09:26:59;6.50;;;5.90;;
1350;SDS011;669;50.206;9.998;2023-04-06T09:29:40;5.87;;;5.23;;
1350;SDS011;669;50.206;9.998;2023-04-06T09:32:27;6.97;;;5.87;;
1350;SDS011;669;50.206;9.998;2023-04-06T09:35:05;6.80;;;5.60;;
1350;SDS011;669;50.206;9.998;2023-04-06T09:37:39;6.93;;;6.23;;
1350;SDS011;669;50.206;9.998;2023-04-06T09:40:17;6.83;;;5.20;;
1350;SDS011;669;50.206;9.998;2023-04-06T09:42:52;6.60;;;4.93;;
1350;SDS011;669;50.206;9.998;2023-04-06T09:45:27;8.13;;;7.43;;
1350;SDS011;669;50.206;9.998;2023-04-06T09:48:09;7.70;;;7.00;;
1350;SDS011;669;50.206;9.998;2023-04-06T09:50:59;8.53;;;7.63;;
1350;SDS011;669;50.206;9.998;2023-04-06T09:53:48;7.63;;;6.80;;
1350;SDS011;669;50.206;9.998;2023-04-06T09:56:37;9.93;;;8.80;;
1350;SDS011;669;50.206;9.998;2023-04-06T09:59:31;10.00;;;9.00;;
1350;SDS011;669;50.206;9.998;2023-04-06T10:02:21;9.67;;;8.60;;
1350;SDS011;669;50.206;9.998;2023-04-06T10:05:05;8.93;;;8.03;;
1350;SDS011;669;50.206;9.998;2023-04-06T10:07:50;10.90;;;8.87;;
1350;SDS011;669;50.206;9.998;2023-04-06T10:10:40;10.10;;;8.80;;
1350;SDS011;669;50.206;9.998;2023-04-06T10:13:19;9.30;;;8.40;;
1350;SDS011;669;50.206;9.998;2023-04-06T10:16:13;9.70;;;8.73;;
1350;SDS011;669;50.206;9.998;2023-04-06T10:18:56;9.40;;;8.40;;
1350;SDS011;669;50.206;9.998;2023-04-06T10:21:36;10.40;;;9.30;;
1350;SDS011;669;50.206;9.998;2023-04-06T10:24:15;9.27;;;8.37;;
1350;SDS011;669;50.206;9.998;2023-04-06T10:27:02;11.40;;;8.60;;
1350;SDS011;669;50.206;9.998;2023-04-06T10:29:53;8.47;;;7.67;;
1350;SDS011;669;50.206;9.998;2023-04-06T10:32:42;11.10;;;10.00;;
1350;SDS011;669;50.206;9.998;2023-04-06T10:35:17;9.90;;;8.93;;
1350;SDS011;669;50.206;9.998;2023-04-06T10:38:00;9.97;;;8.70;;
1350;SDS011;669;50.206;9.998;2023-04-06T10:40:49;7.93;;;7.23;;
1350;SDS011;669;50.206;9.998;2023-04-06T10:43:36;10.13;;;9.13;;
1350;SDS011;669;50.206;9.998;2023-04-06T10:46:16;9.40;;;7.70;;
1350;SDS011;669;50.206;9.998;2023-04-06T10:48:56;9.70;;;8.67;;
1350;SDS011;669;50.206;9.998;2023-04-06T10:51:55;10.30;;;9.20;;
1350;SDS011;669;50.206;9.998;2023-04-06T10:54:36;10.37;;;8.30;;
1350;SDS011;669;50.206;9.998;2023-04-06T10:57:30;9.30;;;8.37;;
1350;SDS011;669;50.206;9.998;2023-04-06T11:00:05;11.50;;;8.40;;
1350;SDS011;669;50.206;9.998;2023-04-06T11:02:38;8.80;;;7.90;;
1350;SDS011;669;50.206;9.998;2023-04-06T11:05:21;12.60;;;10.20;;
1350;SDS011;669;50.206;9.998;2023-04-06T11:08:02;10.10;;;9.10;;
1350;SDS011;669;50.206;9.998;2023-04-06T11:10:44;9.33;;;8.43;;
1350;SDS011;669;50.206;9.998;2023-04-06T11:13:24;9.80;;;8.47;;
1350;SDS011;669;50.206;9.998;2023-04-06T11:16:19;11.10;;;10.00;;
1350;SDS011;669;50.206;9.998;2023-04-06T11:19:02;8.87;;;7.97;;
1350;SDS011;669;50.206;9.998;2023-04-06T11:21:43;8.47;;;7.67;;
1350;SDS011;669;50.206;9.998;2023-04-06T11:24:30;12.53;;;9.17;;
1350;SDS011;669;50.206;9.998;2023-04-06T11:27:09;8.83;;;7.87;;
1350;SDS011;669;50.206;9.998;2023-04-06T11:29:49;12.37;;;8.20;;
1350;SDS011;669;50.206;9.998;2023-04-06T11:32:23;10.07;;;8.73;;
1350;SDS011;669;50.206;9.998;2023-04-06T11:35:01;9.50;;;8.60;;
1350;SDS011;669;50.206;9.998;2023-04-06T11:37:38;12.27;;;8.53;;
1350;SDS011;669;50.206;9.998;2023-04-06T11:40:20;9.90;;;8.87;;
1350;SDS011;669;50.206;9.998;2023-04-06T11:43:05;12.23;;;8.40;;
1350;SDS011;669;50.206;9.998;2023-04-06T11:45:41;8.13;;;7.23;;
1350;SDS011;669;50.206;9.998;2023-04-06T11:48:18;10.13;;;9.03;;
1350;SDS011;669;50.206;9.998;2023-04-06T11:51:02;11.13;;;8.27;;
1350;SDS011;669;50.206;9.998;2023-04-06T11:53:43;10.20;;;8.83;;
1350;SDS011;669;50.206;9.998;2023-04-06T11:56:26;9.87;;;6.63;;
1350;SDS011;669;50.206;9.998;2023-04-06T11:59:11;10.33;;;8.73;;
1350;SDS011;669;50.206;9.998;2023-04-06T12:02:04;9.40;;;8.37;;
1350;SDS011;669;50.206;9.998;2023-04-06T12:04:40;9.73;;;7.67;;
1350;SDS011;669;50.206;9.998;2023-04-06T12:07:15;11.33;;;7.47;;
1350;SDS011;669;50.206;9.998;2023-04-06T12:09:51;10.70;;;9.07;;
1350;SDS011;669;50.206;9.998;2023-04-06T12:12:22;8.60;;;7.70;;
1350;SDS011;669;50.206;9.998;2023-04-06T12:15:03;8.03;;;7.23;;
1350;SDS011;669;50.206;9.998;2023-04-06T12:17:39;11.53;;;8.60;;
1350;SDS011;669;50.206;9.998;2023-04-06T12:20:11;7.20;;;6.50;;
1350;SDS011;669;50.206;9.998;2023-04-06T12:23:01;9.90;;;8.30;;
1350;SDS011;669;50.206;9.998;2023-04-06T12:25:35;7.33;;;6.47;;
1350;SDS011;669;50.206;9.998;2023-04-06T12:28:09;9.10;;;8.30;;
1350;SDS011;669;50.206;9.998;2023-04-06T12:30:49;9.97;;;8.90;;
1350;SDS011;669;50.206;9.998;2023-04-06T12:33:33;6.93;;;5.80;;
1350;SDS011;669;50.206;9.998;2023-04-06T12:36:13;8.30;;;7.47;;
1350;SDS011;669;50.206;9.998;2023-04-06T12:38:55;8.60;;;7.13;;
1350;SDS011;669;50.206;9.998;2023-04-06T12:41:38;6.43;;;5.60;;
1350;SDS011;669;50.206;9.998;2023-04-06T12:44:12;8.17;;;6.87;;
1350;SDS011;669;50.206;9.998;2023-04-06T12:46:50;10.80;;;9.00;;
1350;SDS011;669;50.206;9.998;2023-04-06T12:49:28;10.43;;;8.20;;
1350;SDS011;669;50.206;9.998;2023-04-06T12:52:16;7.17;;;6.47;;
1350;SDS011;669;50.206;9.998;2023-04-06T12:54:57;8.33;;;6.87;;
1350;SDS011;669;50.206;9.998;2023-04-06T12:57:29;8.40;;;7.00;;
1350;SDS011;669;50.206;9.998;2023-04-06T13:00:11;7.30;;;6.33;;
1350;SDS011;669;50.206;9.998;2023-04-06T13:03:11;10.73;;;8.83;;
1350;SDS011;669;50.206;9.998;2023-04-06T13:06:09;8.70;;;6.50;;
1350;SDS011;669;50.206;9.998;2023-04-06T13:08:45;7.17;;;6.47;;
1350;SDS011;669;50.206;9.998;2023-04-06T13:11:25;9.40;;;6.40;;
1350;SDS011;669;50.206;9.998;2023-04-06T13:14:06;10.23;;;7.43;;
1350;SDS011;669;50.206;9.998;2023-04-06T13:16:41;8.50;;;7.07;;
1350;SDS011;669;50.206;9.998;2023-04-06T13:19:25;6.33;;;5.67;;
1350;SDS011;669;50.206;9.998;2023-04-06T13:22:06;8.03;;;7.13;;
1350;SDS011;669;50.206;9.998;2023-04-06T13:24:41;7.57;;;6.87;;
1350;SDS011;669;50.206;9.998;2023-04-06T13:27:17;8.43;;;6.07;;
1350;SDS011;669;50.206;9.998;2023-04-06T13:29:49;7.37;;;6.10;;
1350;SDS011;669;50.206;9.998;2023-04-06T13:32:32;8.83;;;7.97;;
1350;SDS011;669;50.206;9.998;2023-04-06T13:35:08;10.80;;;7.20;;
1350;SDS011;669;50.206;9.998;2023-04-06T13:37:45;7.33;;;6.53;;
1350;SDS011;669;50.206;9.998;2023-04-06T13:40:24;7.73;;;6.83;;
1350;SDS011;669;50.206;9.998;2023-04-06T13:43:01;7.93;;;6.03;;
1350;SDS011;669;50.206;9.998;2023-04-06T13:45:36;6.30;;;5.70;;
1350;SDS011;669;50.206;9.998;2023-04-06T13:48:20;9.67;;;6.40;;
1350;SDS011;669;50.206;9.998;2023-04-06T13:51:13;8.97;;;7.63;;
1350;SDS011;669;50.206;9.998;2023-04-06T13:53:56;7.60;;;6.60;;
1350;SDS011;669;50.206;9.998;2023-04-06T13:59:39;5.70;;;5.10;;
1350;SDS011;669;50.206;9.998;2023-04-06T14:02:16;4.90;;;4.50;;
1350;SDS011;669;50.206;9.998;2023-04-06T14:05:01;5.43;;;4.60;;
1350;SDS011;669;50.206;9.998;2023-04-06T14:07:41;4.93;;;4.53;;
1350;SDS011;669;50.206;9.998;2023-04-06T14:10:23;7.53;;;6.17;;
1350;SDS011;669;50.206;9.998;2023-04-06T14:13:07;6.63;;;4.37;;
1350;SDS011;669;50.206;9.998;2023-04-06T14:15:48;10.50;;;5.80;;
1350;SDS011;669;50.206;9.998;2023-04-06T14:18:35;6.33;;;5.83;;
1350;SDS011;669;50.206;9.998;2023-04-06T14:21:15;7.23;;;6.30;;
1350;SDS011;669;50.206;9.998;2023-04-06T14:23:55;8.67;;;7.07;;
1350;SDS011;669;50.206;9.998;2023-04-06T14:26:39;6.23;;;5.63;;
1350;SDS011;669;50.206;9.998;2023-04-06T14:29:16;6.63;;;6.03;;
1350;SDS011;669;50.206;9.998;2023-04-06T14:31:53;6.73;;;6.13;;
1350;SDS011;669;50.206;9.998;2023-04-06T14:34:29;6.87;;;6.07;;
1350;SDS011;669;50.206;9.998;2023-04-06T14:37:04;8.33;;;6.40;;
1350;SDS011;669;50.206;9.998;2023-04-06T14:39:46;5.90;;;5.33;;
1350;SDS011;669;50.206;9.998;2023-04-06T14:42:35;6.83;;;6.20;;
1350;SDS011;669;50.206;9.998;2023-04-06T14:45:25;6.23;;;5.43;;
1350;SDS011;669;50.206;9.998;2023-04-06T14:48:23;9.10;;;6.70;;
1350;SDS011;669;50.206;9.998;2023-04-06T14:50:58;8.73;;;6.60;;
1350;SDS011;669;50.206;9.998;2023-04-06T14:53:50;6.10;;;5.50;;
1350;SDS011;669;50.206;9.998;2023-04-06T14:56:34;10.53;;;6.70;;
1350;SDS011;669;50.206;9.998;2023-04-06T14:59:15;6.80;;;6.10;;
1350;SDS011;669;50.206;9.998;2023-04-06T15:01:47;7.03;;;6.10;;
1350;SDS011;669;50.206;9.998;2023-04-06T15:04:27;6.50;;;5.70;;
1350;SDS011;669;50.206;9.998;2023-04-06T15:09:53;5.63;;;5.10;;
1350;SDS011;669;50.206;9.998;2023-04-06T15:12:43;6.80;;;5.93;;
1350;SDS011;669;50.206;9.998;2023-04-06T15:15:20;4.97;;;4.43;;
1350;SDS011;669;50.206;9.998;2023-04-06T15:17:53;6.83;;;6.10;;
1350;SDS011;669;50.206;9.998;2023-04-06T15:20:33;6.07;;;4.87;;
1350;SDS011;669;50.206;9.998;2023-04-06T15:23:17;7.27;;;5.73;;
1350;SDS011;669;50.206;9.998;2023-04-06T15:25:52;5.87;;;5.13;;
1350;SDS011;669;50.206;9.998;2023-04-06T15:28:31;5.43;;;4.57;;
1350;SDS011;669;50.206;9.998;2023-04-06T15:31:15;6.87;;;5.20;;
1350;SDS011;669;50.206;9.998;2023-04-06T15:34:10;6.23;;;5.27;;
1350;SDS011;669;50.206;9.998;2023-04-06T15:36:46;13.07;;;7.40;;
1350;SDS011;669;50.206;9.998;2023-04-06T15:39:29;13.20;;;7.27;;
1350;SDS011;669;50.206;9.998;2023-04-06T15:42:09;8.20;;;6.80;;
1350;SDS011;669;50.206;9.998;2023-04-06T15:44:46;7.27;;;6.10;;
1350;SDS011;669;50.206;9.998;2023-04-06T15:47:45;10.53;;;6.40;;
1350;SDS011;669;50.206;9.998;2023-04-06T15:50:39;7.30;;;4.90;;
1350;SDS011;669;50.206;9.998;2023-04-06T15:53:16;7.33;;;5.60;;
1350;SDS011;669;50.206;9.998;2023-04-06T15:56:08;7.13;;;5.87;;
1350;SDS011;669;50.206;9.998;2023-04-06T15:58:43;10.07;;;7.07;;
1350;SDS011;669;50.206;9.998;2023-04-06T16:01:38;7.77;;;7.00;;
1350;SDS011;669;50.206;9.998;2023-04-06T16:04:14;6.33;;;5.73;;
1350;SDS011;669;50.206;9.998;2023-04-06T16:06:50;7.00;;;5.63;;
1350;SDS011;669;50.206;9.998;2023-04-06T16:09:37;7.23;;;6.10;;
1350;SDS011;669;50.206;9.998;2023-04-06T16:12:13;9.23;;;6.10;;
1350;SDS011;669;50.206;9.998;2023-04-06T16:14:45;6.73;;;6.03;;
1350;SDS011;669;50.206;9.998;2023-04-06T16:17:27;5.43;;;4.93;;
1350;SDS011;669;50.206;9.998;2023-04-06T16:20:05;6.70;;;4.90;;
1350;SDS011;669;50.206;9.998;2023-04-06T16:22:43;5.20;;;4.40;;
1350;SDS011;669;50.206;9.998;2023-04-06T16:25:24;4.93;;;4.30;;
1350;SDS011;669;50.206;9.998;2023-04-06T16:28:01;5.57;;;4.50;;
1350;SDS011;669;50.206;9.998;2023-04-06T16:30:41;6.20;;;5.60;;
1350;SDS011;669;50.206;9.998;2023-04-06T16:33:29;4.73;;;4.30;;
1350;SDS011;669;50.206;9.998;2023-04-06T16:36:21;6.80;;;5.60;;
1350;SDS011;669;50.206;9.998;2023-04-06T16:38:57;6.83;;;5.00;;
1350;SDS011;669;50.206;9.998;2023-04-06T16:41:31;6.70;;;4.87;;